Tom Frazier — WDD4376 — position and weather

sailwx.info

Track history (hours):
 
Tides and Currents Weather Stations Pressure Air Temp Water Temp Dewpoint Dewpoint Depression Visibility Wind Speed Wind Dir Waves Ship Positions

Tom Frazier

Owner: American Commercial Lines LLC, Jeffersonville, IN. More information available from US FCC via Universal Licensing System and Coast Guard Vessel Documentation Center.

Last reported at 2017-Aug-22 16:27 UTC. Time now 2017-Aug-22 20:43 UTC.
Position N 38°52' W 090°09'.

Length 48 m; draft 2.9 m.

Type: Towing. MMSI: 367143910.

Date/timePositionNaut miles runAvg speedWind from/ knotsBaromVisibWave heightAir tempDewpointWater temp
2017-Aug-22 16:27N 38°52' W 090°09'2 4.7
2017-Aug-22 15:58N 38°54' W 090°12'3 5.5
2017-Aug-22 15:29N 38°55' W 090°15'2 4.4
2017-Aug-22 15:00N 38°55' W 090°17'2 4.8
2017-Aug-22 14:30N 38°56' W 090°20'3 5.2
2017-Aug-22 14:00N 38°57' W 090°23'2 4.9
2017-Aug-22 13:30N 38°58' W 090°26'2 4.6
2017-Aug-22 13:00N 38°57' W 090°29'3 5.2
2017-Aug-22 12:30N 38°54' W 090°31'3 5.2
2017-Aug-22 12:00N 38°52' W 090°33'  
2017-Aug-19 09:44N 40°58' W 090°58'0 0.0
2017-Aug-19 09:30N 40°58' W 090°58'0 0.1
2017-Aug-19 09:00N 40°58' W 090°58'0 0.0
2017-Aug-19 08:27N 40°58' W 090°58'0 0.0
2017-Aug-19 08:00N 40°58' W 090°58'0 0.2
2017-Aug-19 07:30N 40°59' W 090°58'0 0.2
2017-Aug-19 07:00N 40°59' W 090°58'2 4.0
2017-Aug-19 06:30N 41°00' W 090°57'3 5.5
2017-Aug-19 06:00N 41°03' W 090°57'3 5.3
2017-Aug-19 05:30N 41°06' W 090°57'3 5.0
2017-Aug-19 05:00N 41°08' W 090°58'2 1.0
2017-Aug-19 02:49N 41°10' W 090°60'1 0.0
2017-Aug-17 20:52N 41°09' W 090°59'2 3.9
2017-Aug-17 20:18N 41°07' W 090°58'0 0.2
2017-Aug-17 20:00N 41°07' W 090°58'1 2.0
2017-Aug-17 19:25N 41°06' W 090°57'2 4.2
2017-Aug-17 19:00N 41°05' W 090°57'2 4.3
2017-Aug-17 18:30N 41°02' W 090°56'2 4.3
2017-Aug-17 18:00N 41°00' W 090°57'2 4.0
2017-Aug-17 17:30N 40°58' W 090°58'0 0.0
2017-Aug-17 17:00N 40°58' W 090°58'0 0.0
2017-Aug-17 16:30N 40°58' W 090°58'1 1.1
2017-Aug-17 16:00N 40°58' W 090°57'2 3.9
2017-Aug-17 15:30N 40°56' W 090°58'2 4.1
2017-Aug-17 15:00N 40°55' W 090°60'1 2.7
2017-Aug-17 14:30N 40°54' W 091°01'1 1.4
2017-Aug-17 14:00N 40°53' W 091°01'0 0.6
2017-Aug-17 13:30N 40°53' W 091°01'0 0.2
2017-Aug-17 13:00N 40°53' W 091°02'0 0.1
2017-Aug-17 12:30N 40°53' W 091°02'1 2.3
2017-Aug-17 11:56N 40°52' W 091°03'0 0.2
2017-Aug-17 11:30N 40°52' W 091°03'2 3.3
2017-Aug-17 11:00N 40°50' W 091°04'2 4.4
2017-Aug-17 10:30N 40°49' W 091°06'2 4.7
2017-Aug-17 10:00N 40°46' W 091°06'1 1.1
2017-Aug-17 09:30N 40°46' W 091°06'0 0.0
2017-Aug-17 08:56N 40°46' W 091°06'0 0.0
2017-Aug-17 08:30N 40°46' W 091°06'2 2.4
2017-Aug-17 07:41N 40°44' W 091°07'  
Track history (hours):
 
Tides and Currents Weather Stations Pressure Air Temp Water Temp Dewpoint Dewpoint Depression Visibility Wind Speed Wind Dir Waves Ship Positions

Tom Frazier

Owner: American Commercial Lines LLC, Jeffersonville, IN. More information available from US FCC via Universal Licensing System and Coast Guard Vessel Documentation Center.

Last reported at 2017-Aug-22 16:27 UTC. Time now 2017-Aug-22 20:43 UTC.
Position N 38°52' W 090°09'.

Length 48 m; draft 2.9 m.

Type: Towing. MMSI: 367143910.

Date/timePositionNaut miles runAvg speedWind from/ knotsBaromVisibWave heightAir tempDewpointWater temp
2017-Aug-22 16:27N 38°52' W 090°09'2 4.7
2017-Aug-22 15:58N 38°54' W 090°12'3 5.5
2017-Aug-22 15:29N 38°55' W 090°15'2 4.4
2017-Aug-22 15:00N 38°55' W 090°17'2 4.8
2017-Aug-22 14:30N 38°56' W 090°20'3 5.2
2017-Aug-22 14:00N 38°57' W 090°23'2 4.9
2017-Aug-22 13:30N 38°58' W 090°26'2 4.6
2017-Aug-22 13:00N 38°57' W 090°29'3 5.2
2017-Aug-22 12:30N 38°54' W 090°31'3 5.2
2017-Aug-22 12:00N 38°52' W 090°33'  
2017-Aug-19 09:44N 40°58' W 090°58'0 0.0
2017-Aug-19 09:30N 40°58' W 090°58'0 0.1
2017-Aug-19 09:00N 40°58' W 090°58'0 0.0
2017-Aug-19 08:27N 40°58' W 090°58'0 0.0
2017-Aug-19 08:00N 40°58' W 090°58'0 0.2
2017-Aug-19 07:30N 40°59' W 090°58'0 0.2
2017-Aug-19 07:00N 40°59' W 090°58'2 4.0
2017-Aug-19 06:30N 41°00' W 090°57'3 5.5
2017-Aug-19 06:00N 41°03' W 090°57'3 5.3
2017-Aug-19 05:30N 41°06' W 090°57'3 5.0
2017-Aug-19 05:00N 41°08' W 090°58'2 1.0
2017-Aug-19 02:49N 41°10' W 090°60'1 0.0
2017-Aug-17 20:52N 41°09' W 090°59'2 3.9
2017-Aug-17 20:18N 41°07' W 090°58'0 0.2
2017-Aug-17 20:00N 41°07' W 090°58'1 2.0
2017-Aug-17 19:25N 41°06' W 090°57'2 4.2
2017-Aug-17 19:00N 41°05' W 090°57'2 4.3
2017-Aug-17 18:30N 41°02' W 090°56'2 4.3
2017-Aug-17 18:00N 41°00' W 090°57'2 4.0
2017-Aug-17 17:30N 40°58' W 090°58'0 0.0
2017-Aug-17 17:00N 40°58' W 090°58'0 0.0
2017-Aug-17 16:30N 40°58' W 090°58'1 1.1
2017-Aug-17 16:00N 40°58' W 090°57'2 3.9
2017-Aug-17 15:30N 40°56' W 090°58'2 4.1
2017-Aug-17 15:00N 40°55' W 090°60'1 2.7
2017-Aug-17 14:30N 40°54' W 091°01'1 1.4
2017-Aug-17 14:00N 40°53' W 091°01'0 0.6
2017-Aug-17 13:30N 40°53' W 091°01'0 0.2
2017-Aug-17 13:00N 40°53' W 091°02'0 0.1
2017-Aug-17 12:30N 40°53' W 091°02'1 2.3
2017-Aug-17 11:56N 40°52' W 091°03'0 0.2
2017-Aug-17 11:30N 40°52' W 091°03'2 3.3
2017-Aug-17 11:00N 40°50' W 091°04'2 4.4
2017-Aug-17 10:30N 40°49' W 091°06'2 4.7
2017-Aug-17 10:00N 40°46' W 091°06'1 1.1
2017-Aug-17 09:30N 40°46' W 091°06'0 0.0
2017-Aug-17 08:56N 40°46' W 091°06'0 0.0
2017-Aug-17 08:30N 40°46' W 091°06'2 2.4
2017-Aug-17 07:41N 40°44' W 091°07'  

Dump ship's entire track history